Time;durP1;ratioP1;P1;durP2;ratioP2;P2;SDS_P1;SDS_P2;PMS_P1;PMS_P2;Temp;Humidity;BMP_temperature;BMP_pressure;BME280_temperature;BME280_humidity;BME280_pressure;Samples;Min_cycle;Max_cycle;Signal;HPM_P1;HPM_P2
2024/02/22 00:00:50;;;;;;;2.53;1.70;;;;;;;9.98;71.18;92278.00;2111164;28;20038;-84
2024/02/22 00:01:51;;;;;;;3.65;1.60;;;;;;;9.92;75.15;92255.72;2093912;28;20086;-83
2024/02/22 00:02:52;;;;;;;1.63;1.30;;;;;;;9.97;76.55;92289.88;2094790;28;20486;-83
2024/02/22 00:03:53;;;;;;;1.75;1.52;;;;;;;9.49;79.39;92272.38;2102610;28;20159;-82
2024/02/22 00:04:54;;;;;;;2.35;1.60;;;;;;;9.67;79.44;92266.47;2110256;28;20396;-82
2024/02/22 00:05:55;;;;;;;1.60;1.50;;;;;;;9.67;81.07;92269.88;2106791;28;20071;-83
2024/02/22 00:06:57;;;;;;;1.95;1.65;;;;;;;9.48;84.85;92274.28;2106812;28;20020;-83
2024/02/22 00:07:58;;;;;;;2.35;1.83;;;;;;;9.51;86.78;92272.66;2104144;28;20772;-85
2024/02/22 00:08:59;;;;;;;2.38;1.80;;;;;;;9.47;85.99;92269.38;2107765;28;20035;-83
2024/02/22 00:10:01;;;;;;;2.58;1.80;;;;;;;9.56;85.51;92274.78;1947915;28;20035;-83
2024/02/22 00:11:03;;;;;;;2.20;1.80;;;;;;;9.21;92.22;92279.28;2049970;28;20040;-82
2024/02/22 00:12:04;;;;;;;2.03;1.60;;;;;;;9.28;92.79;92271.09;1999395;28;20035;-83
2024/02/22 00:13:05;;;;;;;2.10;1.80;;;;;;;9.11;95.70;92275.03;1972688;28;20167;-82
2024/02/22 00:14:07;;;;;;;2.85;1.73;;;;;;;9.12;97.94;92274.59;2033580;28;20028;-83
2024/02/22 00:15:10;;;;;;;3.88;1.80;;;;;;;9.33;96.96;92268.63;2002519;27;20145;-81
2024/02/22 00:16:15;;;;;;;3.45;2.08;;;;;;;9.44;99.05;92254.22;2078373;27;20030;-83
2024/02/22 00:17:16;;;;;;;3.05;1.67;;;;;;;9.34;98.94;92259.44;2068173;27;20087;-83
2024/02/22 00:18:17;;;;;;;3.55;1.73;;;;;;;9.10;100.00;92254.91;2066438;28;20079;-83
2024/02/22 00:19:18;;;;;;;3.20;1.73;;;;;;;9.32;100.00;92266.41;2058221;27;20023;-81
2024/02/22 00:20:19;;;;;;;1.98;1.58;;;;;;;9.27;100.00;92262.34;2067307;27;20034;-81
2024/02/22 00:21:20;;;;;;;3.10;1.63;;;;;;;9.16;100.00;92264.59;2056177;27;20681;-83
2024/02/22 00:22:21;;;;;;;2.55;1.98;;;;;;;9.02;100.00;92255.09;2048790;27;20108;-82
2024/02/22 00:23:22;;;;;;;4.00;1.80;;;;;;;8.92;100.00;92245.50;1938039;27;20115;-82
2024/02/22 00:24:23;;;;;;;3.58;1.67;;;;;;;8.75;100.00;92252.84;1914030;28;20043;-82
2024/02/22 00:25:24;;;;;;;2.25;2.03;;;;;;;8.75;100.00;92257.44;1859967;28;21802;-79
2024/02/22 00:26:25;;;;;;;2.42;2.00;;;;;;;8.61;100.00;92252.50;1749733;28;20127;-80
2024/02/22 00:27:28;;;;;;;2.45;1.75;;;;;;;8.86;100.00;92252.53;1782398;28;21084;-81
2024/02/22 00:28:29;;;;;;;1.90;1.80;;;;;;;8.78;100.00;92244.00;1840222;28;21134;-80
2024/02/22 00:29:30;;;;;;;4.93;2.00;;;;;;;9.01;100.00;92242.94;1728200;28;20028;-80
2024/02/22 00:30:31;;;;;;;2.65;1.90;;;;;;;8.88;100.00;92239.53;1743244;28;20031;-80
2024/02/22 00:31:32;;;;;;;2.10;1.63;;;;;;;9.05;100.00;92243.59;1742242;28;22328;-81
2024/02/22 00:32:33;;;;;;;3.03;1.77;;;;;;;9.09;100.00;92232.81;1728300;28;20034;-81
2024/02/22 00:33:34;;;;;;;2.97;1.90;;;;;;;8.97;100.00;92220.25;1726023;28;23352;-80
2024/02/22 00:34:35;;;;;;;2.53;1.77;;;;;;;9.07;100.00;92225.25;1748621;28;21367;-79
2024/02/22 00:35:36;;;;;;;1.92;1.70;;;;;;;9.05;100.00;92232.94;1811077;27;20049;-80
2024/02/22 00:36:42;;;;;;;1.83;1.70;;;;;;;9.07;100.00;92227.16;1807145;28;21939;-80
2024/02/22 00:37:43;;;;;;;2.13;1.67;;;;;;;8.86;100.00;92225.88;1838456;28;20032;-80
2024/02/22 00:38:44;;;;;;;2.63;1.70;;;;;;;8.81;100.00;92235.16;1864031;28;20028;-80
2024/02/22 00:39:48;;;;;;;1.75;1.60;;;;;;;8.88;100.00;92228.88;1885989;28;21560;-79
2024/02/22 00:40:50;;;;;;;1.88;1.67;;;;;;;8.79;100.00;92236.75;1942384;28;22510;-80
2024/02/22 00:41:51;;;;;;;2.05;1.85;;;;;;;8.77;100.00;92229.16;1947218;28;20085;-80
2024/02/22 00:42:52;;;;;;;2.65;1.85;;;;;;;8.51;100.00;92228.41;1996295;28;20031;-80
2024/02/22 00:43:53;;;;;;;4.60;2.05;;;;;;;8.47;100.00;92227.78;2034138;28;20158;-82
2024/02/22 00:44:54;;;;;;;4.35;1.80;;;;;;;8.45;100.00;92224.78;2085191;28;20034;-81
2024/02/22 00:45:55;;;;;;;2.05;1.80;;;;;;;8.41;100.00;92229.44;2098554;28;20106;-82
2024/02/22 00:46:56;;;;;;;2.08;1.88;;;;;;;8.30;100.00;92215.66;2097482;28;20036;-81
2024/02/22 00:47:58;;;;;;;2.70;1.90;;;;;;;8.41;100.00;92226.78;2095847;28;20087;-82
2024/02/22 00:48:59;;;;;;;1.55;1.45;;;;;;;8.54;100.00;92222.22;2087710;28;20468;-81
2024/02/22 00:50:00;;;;;;;2.67;1.90;;;;;;;8.39;100.00;92207.09;2092254;28;20039;-83
2024/02/22 00:51:01;;;;;;;2.30;1.83;;;;;;;8.37;100.00;92204.84;2081334;28;20027;-81
2024/02/22 00:52:02;;;;;;;2.08;1.60;;;;;;;8.50;100.00;92204.84;2066195;28;20385;-83
2024/02/22 00:53:03;;;;;;;3.72;1.63;;;;;;;8.51;100.00;92201.00;2073422;28;20553;-82
2024/02/22 00:54:04;;;;;;;2.20;1.77;;;;;;;8.19;100.00;92193.91;2000636;28;20040;-82
2024/02/22 00:55:06;;;;;;;2.78;1.77;;;;;;;8.24;100.00;92199.44;2023324;28;20036;-82
2024/02/22 00:56:07;;;;;;;1.60;1.50;;;;;;;8.28;100.00;92192.13;2030494;28;20032;-82
2024/02/22 00:57:08;;;;;;;1.70;1.60;;;;;;;8.42;100.00;92195.56;2038302;28;20066;-81
2024/02/22 00:58:09;;;;;;;4.28;1.70;;;;;;;8.33;100.00;92190.84;2049688;28;20496;-82
2024/02/22 00:59:10;;;;;;;3.58;2.00;;;;;;;8.19;100.00;92186.66;2049444;28;20028;-82
2024/02/22 01:00:11;;;;;;;1.88;1.67;;;;;;;8.18;100.00;92189.75;2066491;27;20027;-82
2024/02/22 01:01:14;;;;;;;1.60;1.50;;;;;;;8.40;100.00;92190.69;2081153;27;20059;-82
2024/02/22 01:02:21;;;;;;;2.03;1.75;;;;;;;8.14;100.00;92184.53;2083081;28;20377;-81
2024/02/22 01:03:22;;;;;;;1.88;1.67;;;;;;;8.10;100.00;92189.22;2099085;27;20039;-82
2024/02/22 01:04:23;;;;;;;2.55;1.67;;;;;;;8.16;100.00;92178.78;2102669;28;20039;-83
2024/02/22 01:05:24;;;;;;;3.75;1.75;;;;;;;8.13;100.00;92179.66;2105021;28;20461;-83
2024/02/22 01:06:25;;;;;;;2.17;1.60;;;;;;;8.25;100.00;92179.66;2106101;28;20099;-81
2024/02/22 01:07:26;;;;;;;1.88;1.58;;;;;;;8.36;100.00;92167.97;2114827;28;20046;-81
2024/02/22 01:08:27;;;;;;;3.88;1.80;;;;;;;8.24;100.00;92177.41;2106203;28;20362;-82
2024/02/22 01:09:28;;;;;;;2.55;1.80;;;;;;;7.92;100.00;92160.41;2110262;28;20334;-81
2024/02/22 01:10:29;;;;;;;2.55;1.85;;;;;;;8.19;100.00;92165.38;2101071;28;20933;-81
2024/02/22 01:11:29;;;;;;;3.10;1.48;;;;;;;7.90;100.00;92162.78;2072811;28;20054;-81
2024/02/22 01:12:30;;;;;;;2.58;1.73;;;;;;;7.93;100.00;92163.81;1998762;28;20070;-81
2024/02/22 01:13:31;;;;;;;1.52;1.42;;;;;;;8.08;100.00;92159.63;2012287;28;20035;-83
2024/02/22 01:14:32;;;;;;;2.22;1.70;;;;;;;7.89;100.00;92153.28;2023548;28;20131;-82
2024/02/22 01:15:35;;;;;;;3.70;1.65;;;;;;;7.90;100.00;92154.03;2019229;28;20028;-82
2024/02/22 01:16:36;;;;;;;2.63;1.70;;;;;;;7.83;100.00;92161.03;2035219;28;20162;-82
2024/02/22 01:17:37;;;;;;;2.65;1.63;;;;;;;7.91;100.00;92152.88;2044147;28;20042;-81
2024/02/22 01:18:38;;;;;;;1.63;1.50;;;;;;;8.20;100.00;92150.88;2051463;28;20177;-81
2024/02/22 01:19:38;;;;;;;2.38;1.70;;;;;;;8.16;100.00;92150.25;2060611;28;23162;-82
2024/02/22 01:20:39;;;;;;;2.53;1.60;;;;;;;8.07;100.00;92158.84;2083159;27;21409;-81
2024/02/22 01:21:40;;;;;;;2.15;1.67;;;;;;;8.30;100.00;92157.84;2082549;28;20089;-82
2024/02/22 01:22:41;;;;;;;2.80;1.52;;;;;;;8.16;100.00;92162.81;2081733;28;20036;-82
2024/02/22 01:23:42;;;;;;;2.03;1.50;;;;;;;8.07;100.00;92153.53;2098382;28;20060;-83
2024/02/22 01:24:43;;;;;;;2.13;1.50;;;;;;;8.20;100.00;92155.47;2106070;28;20012;-82
2024/02/22 01:25:44;;;;;;;2.63;1.65;;;;;;;8.14;100.00;92149.94;2097715;28;20078;-83
2024/02/22 01:26:45;;;;;;;1.40;1.30;;;;;;;8.15;100.00;92142.69;2097527;28;20420;-82
2024/02/22 01:27:46;;;;;;;1.98;1.40;;;;;;;8.08;100.00;92147.06;2097830;28;20116;-83
2024/02/22 01:28:50;;;;;;;1.67;1.45;;;;;;;8.02;100.00;92140.75;2097585;28;20095;-82
2024/02/22 01:29:51;;;;;;;1.50;1.30;;;;;;;8.15;100.00;92140.78;2098122;28;20028;-82
2024/02/22 01:30:52;;;;;;;2.42;1.40;;;;;;;8.07;100.00;92132.22;2097805;28;20489;-82
2024/02/22 01:31:53;;;;;;;1.42;1.30;;;;;;;7.90;100.00;92133.50;2106088;28;20107;-83
2024/02/22 01:32:54;;;;;;;1.30;1.20;;;;;;;8.07;100.00;92137.56;2097649;28;20028;-82
2024/02/22 01:33:55;;;;;;;1.50;1.23;;;;;;;8.30;100.00;92125.16;2089388;28;20021;-82
2024/02/22 01:34:56;;;;;;;3.03;1.60;;;;;;;8.39;100.00;92125.28;2106016;28;20039;-83
2024/02/22 01:35:57;;;;;;;1.75;1.58;;;;;;;8.44;100.00;92127.41;2106163;28;20027;-82
2024/02/22 01:36:58;;;;;;;2.58;1.60;;;;;;;8.43;100.00;92125.94;2106055;28;20046;-82
2024/02/22 01:37:59;;;;;;;1.60;1.40;;;;;;;8.46;100.00;92122.41;2097812;28;20030;-83
2024/02/22 01:39:03;;;;;;;2.58;1.40;;;;;;;8.28;100.00;92119.50;2097590;28;20024;-82
2024/02/22 01:40:08;;;;;;;1.95;1.45;;;;;;;8.27;100.00;92118.00;2090580;28;20039;-83
2024/02/22 01:41:10;;;;;;;1.50;1.40;;;;;;;7.91;100.00;92124.34;2090588;28;20107;-81
2024/02/22 01:42:11;;;;;;;3.05;1.92;;;;;;;7.95;100.00;92111.69;2095762;28;20047;-80
2024/02/22 01:43:12;;;;;;;1.95;1.33;;;;;;;8.10;100.00;92114.69;2106190;28;20024;-79
2024/02/22 01:44:13;;;;;;;2.22;1.60;;;;;;;8.22;100.00;92121.94;2106044;28;20475;-82
2024/02/22 01:45:14;;;;;;;1.65;1.42;;;;;;;8.07;100.00;92113.59;2110240;27;20019;-82
2024/02/22 01:46:15;;;;;;;2.28;1.67;;;;;;;8.22;100.00;92103.31;2106098;28;20420;-82
2024/02/22 01:47:17;;;;;;;4.28;2.00;;;;;;;7.99;100.00;92101.69;2097561;28;20024;-82
2024/02/22 01:48:18;;;;;;;2.15;1.40;;;;;;;7.73;100.00;92092.19;2097613;28;20028;-82
2024/02/22 01:49:19;;;;;;;1.52;1.40;;;;;;;7.94;100.00;92085.50;2099152;28;20021;-83
2024/02/22 01:50:20;;;;;;;1.40;1.30;;;;;;;7.96;100.00;92086.56;2098339;28;20024;-83
2024/02/22 01:51:21;;;;;;;3.47;1.60;;;;;;;7.86;100.00;92092.94;2103253;28;20144;-82
2024/02/22 01:52:22;;;;;;;2.08;1.90;;;;;;;7.95;100.00;92095.72;2114267;28;20035;-84
2024/02/22 01:53:26;;;;;;;3.47;1.40;;;;;;;7.85;100.00;92101.34;2110666;28;20495;-84
2024/02/22 01:54:27;;;;;;;1.65;1.10;;;;;;;7.87;100.00;92105.06;2098050;28;20016;-82
2024/02/22 01:55:28;;;;;;;1.33;1.20;;;;;;;7.85;100.00;92099.41;2097718;28;20021;-82
2024/02/22 01:56:30;;;;;;;1.85;1.33;;;;;;;7.87;100.00;92089.09;2097499;28;20052;-81
2024/02/22 01:57:31;;;;;;;1.42;1.20;;;;;;;7.84;100.00;92087.28;2097954;28;20366;-82
2024/02/22 01:58:33;;;;;;;2.58;1.50;;;;;;;7.80;100.00;92083.97;2106043;28;20153;-82
2024/02/22 01:59:34;;;;;;;2.53;1.42;;;;;;;7.64;100.00;92074.19;2097681;28;20020;-83
2024/02/22 02:00:36;;;;;;;2.45;1.20;;;;;;;7.69;100.00;92081.63;2097487;28;20026;-82
2024/02/22 02:01:40;;;;;;;2.20;1.52;;;;;;;7.57;100.00;92079.69;2097776;28;20029;-83
2024/02/22 02:02:42;;;;;;;1.10;1.00;;;;;;;7.65;100.00;92074.91;2098225;28;20118;-83
2024/02/22 02:03:43;;;;;;;1.30;1.20;;;;;;;7.76;100.00;92070.78;2106187;27;20392;-83
2024/02/22 02:04:44;;;;;;;1.42;1.30;;;;;;;7.93;100.00;92076.75;2114250;28;20023;-84
2024/02/22 02:05:45;;;;;;;2.63;1.42;;;;;;;7.67;100.00;92070.66;2114308;28;20051;-81
2024/02/22 02:06:47;;;;;;;1.50;1.40;;;;;;;7.76;100.00;92070.78;2105808;28;20031;-83
2024/02/22 02:07:48;;;;;;;1.30;1.20;;;;;;;7.85;100.00;92066.75;2097612;28;20068;-82
2024/02/22 02:08:49;;;;;;;1.58;1.48;;;;;;;7.97;100.00;92058.78;2096660;28;20432;-84
2024/02/22 02:09:50;;;;;;;1.63;1.30;;;;;;;7.84;100.00;92071.31;2099313;28;20032;-83
2024/02/22 02:10:51;;;;;;;2.30;1.50;;;;;;;7.75;100.00;92057.91;2067045;28;20122;-83
2024/02/22 02:11:52;;;;;;;1.90;1.42;;;;;;;7.57;100.00;92066.38;2003878;28;20027;-82
2024/02/22 02:13:01;;;;;;;1.67;1.40;;;;;;;7.64;100.00;92062.75;2006514;28;20031;-83
2024/02/22 02:14:02;;;;;;;1.75;1.30;;;;;;;7.58;100.00;92060.63;2018168;28;23398;-83
2024/02/22 02:15:06;;;;;;;1.70;1.40;;;;;;;7.63;100.00;92061.28;2029095;28;20051;-84
2024/02/22 02:16:07;;;;;;;2.20;1.50;;;;;;;7.58;100.00;92054.56;2034300;28;20036;-81
2024/02/22 02:17:08;;;;;;;1.67;1.58;;;;;;;7.28;100.00;92053.09;2033047;28;20481;-83
2024/02/22 02:18:09;;;;;;;2.03;1.23;;;;;;;7.42;100.00;92058.06;2047772;28;20028;-84
2024/02/22 02:19:19;;;;;;;1.60;1.50;;;;;;;7.48;100.00;92061.69;2063626;28;20027;-81
2024/02/22 02:20:24;;;;;;;1.40;1.30;;;;;;;7.54;100.00;92057.31;2069280;28;20036;-82
2024/02/22 02:21:29;;;;;;;3.33;0.98;;;;;;;7.74;100.00;92064.41;2065955;28;20158;-82
2024/02/22 02:23:07;;;;;;;1.40;1.30;;;;;;;7.68;100.00;92056.22;2087332;28;20042;-83
2024/02/22 02:24:31;;;;;;;1.15;1.05;;;;;;;7.53;100.00;92052.44;2117534;27;20471;-82
2024/02/22 02:25:32;;;;;;;1.27;1.10;;;;;;;7.64;100.00;92057.44;2113795;28;20126;-81
2024/02/22 02:26:33;;;;;;;1.63;1.00;;;;;;;7.74;100.00;92041.19;2099199;28;20059;-82
2024/02/22 02:27:36;;;;;;;1.00;0.90;;;;;;;7.80;100.00;92041.41;2105639;28;20043;-82
2024/02/22 02:28:37;;;;;;;1.60;0.80;;;;;;;7.78;100.00;92043.78;2097562;28;20028;-83
2024/02/22 02:29:38;;;;;;;1.15;1.05;;;;;;;7.72;100.00;92032.88;2097238;28;20032;-83
2024/02/22 02:30:39;;;;;;;1.25;1.05;;;;;;;7.75;100.00;92036.63;2088948;28;20402;-83
2024/02/22 02:31:40;;;;;;;0.95;0.90;;;;;;;7.72;100.00;92035.53;2089016;28;20521;-82
2024/02/22 02:32:41;;;;;;;1.13;1.00;;;;;;;7.77;100.00;92031.63;2096476;28;20107;-84
2024/02/22 02:33:42;;;;;;;1.33;1.10;;;;;;;7.64;100.00;92025.53;2089096;28;20025;-83
2024/02/22 02:34:43;;;;;;;1.80;1.27;;;;;;;7.71;100.00;92031.41;2094124;28;20111;-82
2024/02/22 02:35:44;;;;;;;3.50;1.00;;;;;;;7.70;100.00;92035.25;2097360;28;20032;-82
2024/02/22 02:36:45;;;;;;;1.00;0.90;;;;;;;7.62;100.00;92033.19;2091822;28;20516;-83
2024/02/22 02:37:46;;;;;;;1.98;0.85;;;;;;;7.58;100.00;92025.31;2080834;28;20025;-84
2024/02/22 02:38:47;;;;;;;1.98;1.10;;;;;;;7.66;100.00;92023.22;2088974;28;20044;-82
2024/02/22 02:39:48;;;;;;;1.10;1.00;;;;;;;7.62;100.00;92019.91;2090570;28;20028;-82
2024/02/22 02:40:49;;;;;;;1.65;1.10;;;;;;;7.71;100.00;92022.69;2096595;28;20028;-83
2024/02/22 02:41:51;;;;;;;1.75;1.10;;;;;;;7.67;100.00;92030.75;2098768;28;20017;-83
2024/02/22 02:42:52;;;;;;;1.42;1.02;;;;;;;7.69;100.00;92025.03;2103337;28;20024;-83
2024/02/22 02:43:53;;;;;;;1.13;0.82;;;;;;;7.65;100.00;92014.50;2092265;28;20122;-82
2024/02/22 02:44:54;;;;;;;1.13;1.02;;;;;;;7.62;100.00;92017.25;2101902;28;20404;-83
2024/02/22 02:45:55;;;;;;;0.95;0.85;;;;;;;7.65;100.00;92017.16;2097235;28;20547;-82
2024/02/22 02:46:55;;;;;;;1.10;0.70;;;;;;;7.69;100.00;92017.78;2102099;28;20429;-83
2024/02/22 02:47:57;;;;;;;1.75;1.00;;;;;;;7.69;100.00;92006.41;2103338;28;20035;-83
2024/02/22 02:48:58;;;;;;;0.82;0.73;;;;;;;7.56;100.00;92009.78;2088838;28;20025;-84
2024/02/22 02:49:58;;;;;;;1.00;0.90;;;;;;;7.72;100.00;91997.56;2091688;28;20971;-83
2024/02/22 02:50:59;;;;;;;0.63;0.63;;;;;;;7.49;100.00;91994.03;2097181;28;20090;-84
2024/02/22 02:52:00;;;;;;;0.90;0.90;;;;;;;7.83;100.00;91992.69;2097064;28;20101;-83
2024/02/22 02:53:01;;;;;;;1.13;0.57;;;;;;;7.59;100.00;91997.56;2088974;28;20036;-85
2024/02/22 02:54:02;;;;;;;1.00;0.60;;;;;;;7.86;100.00;91989.19;2088057;28;20038;-85
2024/02/22 02:55:04;;;;;;;0.95;0.57;;;;;;;7.72;100.00;91979.69;2105570;28;20032;-82
2024/02/22 02:56:05;;;;;;;1.10;0.70;;;;;;;7.90;100.00;91976.53;2105568;28;20051;-83
2024/02/22 02:57:06;;;;;;;0.93;0.50;;;;;;;7.72;100.00;91976.28;2097191;28;20054;-84
2024/02/22 02:58:08;;;;;;;1.15;1.10;;;;;;;7.88;100.00;91983.44;2093399;28;20029;-83
2024/02/22 02:59:09;;;;;;;0.60;0.60;;;;;;;8.04;100.00;91968.09;2097075;28;20453;-83
2024/02/22 03:00:14;;;;;;;1.15;0.63;;;;;;;8.10;100.00;91970.97;2088906;28;20032;-83
2024/02/22 03:01:15;;;;;;;0.60;0.60;;;;;;;8.16;100.00;91971.91;2091210;28;20024;-82
2024/02/22 03:02:17;;;;;;;0.50;0.50;;;;;;;8.15;100.00;91965.09;2105272;28;20523;-82
2024/02/22 03:03:18;;;;;;;0.50;0.50;;;;;;;8.03;100.00;91965.84;2089044;28;20017;-85
2024/02/22 03:04:19;;;;;;;0.50;0.50;;;;;;;7.92;100.00;91965.44;2082472;28;20099;-83
2024/02/22 03:05:20;;;;;;;0.40;0.40;;;;;;;7.93;100.00;91967.69;2089002;28;20021;-84
2024/02/22 03:06:21;;;;;;;0.50;0.50;;;;;;;8.00;100.00;91959.50;2088937;28;20107;-83
2024/02/22 03:07:22;;;;;;;0.40;0.40;;;;;;;7.87;100.00;91956.09;2097148;28;20027;-84
2024/02/22 03:08:23;;;;;;;0.35;0.35;;;;;;;7.90;100.00;91957.13;2097330;28;20115;-83
2024/02/22 03:09:24;;;;;;;0.50;0.50;;;;;;;7.86;100.00;91946.63;2097037;28;20489;-83
2024/02/22 03:10:25;;;;;;;0.40;0.40;;;;;;;8.10;100.00;91943.63;2088885;28;20029;-83
2024/02/22 03:11:27;;;;;;;0.82;0.40;;;;;;;7.98;100.00;91942.44;2094761;28;20056;-84
2024/02/22 03:12:29;;;;;;;0.40;0.40;;;;;;;8.06;100.00;91949.03;2100685;28;20448;-83
2024/02/22 03:13:30;;;;;;;0.50;0.50;;;;;;;8.13;100.00;91940.84;2104540;28;20111;-83
2024/02/22 03:14:33;;;;;;;0.45;0.45;;;;;;;8.14;100.00;91947.66;2105568;28;20020;-83
2024/02/22 03:15:37;;;;;;;0.30;0.30;;;;;;;7.95;100.00;91943.31;2105706;28;20024;-83
2024/02/22 03:16:38;;;;;;;0.52;0.40;;;;;;;8.01;100.00;91937.03;2105304;28;20027;-85
2024/02/22 03:17:39;;;;;;;0.47;0.30;;;;;;;8.05;100.00;91937.66;2097039;28;20425;-82
2024/02/22 03:18:40;;;;;;;0.57;0.50;;;;;;;8.08;100.00;91939.47;2088851;28;20028;-84
2024/02/22 03:19:43;;;;;;;0.40;0.40;;;;;;;8.11;100.00;91926.47;2080725;28;20032;-83
2024/02/22 03:20:45;;;;;;;0.30;0.30;;;;;;;8.08;100.00;91917.44;2083173;28;20028;-86
2024/02/22 03:21:46;;;;;;;0.30;0.30;;;;;;;8.21;100.00;91922.72;2096152;28;20028;-83
2024/02/22 03:22:47;;;;;;;0.43;0.30;;;;;;;8.12;100.00;91928.72;2102008;28;20141;-85
2024/02/22 03:23:49;;;;;;;1.15;0.40;;;;;;;8.07;100.00;91932.63;2098638;28;20025;-83
2024/02/22 03:24:50;;;;;;;0.40;0.40;;;;;;;8.18;100.00;91908.34;2090974;28;20521;-82
2024/02/22 03:25:51;;;;;;;0.40;0.40;;;;;;;8.16;100.00;91920.59;2099670;28;20363;-85
2024/02/22 03:26:53;;;;;;;3.45;0.50;;;;;;;8.23;100.00;91920.38;2107184;28;20057;-84
2024/02/22 03:27:58;;;;;;;0.40;0.40;;;;;;;8.14;100.00;91913.06;2107153;28;20119;-83
2024/02/22 03:29:00;;;;;;;1.25;0.40;;;;;;;8.19;100.00;91907.19;2107526;28;20024;-84
2024/02/22 03:30:03;;;;;;;0.40;0.40;;;;;;;8.14;100.00;91910.38;2115622;28;20026;-84
2024/02/22 03:31:04;;;;;;;0.65;0.40;;;;;;;8.19;100.00;91915.16;2107060;28;20035;-82
2024/02/22 03:32:05;;;;;;;0.40;0.40;;;;;;;7.96;100.00;91905.63;2098703;28;20024;-84
2024/02/22 03:33:08;;;;;;;1.73;0.75;;;;;;;8.05;100.00;91904.97;2115513;28;20492;-82
2024/02/22 03:34:09;;;;;;;0.30;0.30;;;;;;;8.30;100.00;91899.59;2106935;28;20024;-83
2024/02/22 03:35:10;;;;;;;0.40;0.40;;;;;;;8.09;100.00;91902.94;2106991;28;20089;-83
2024/02/22 03:36:11;;;;;;;0.40;0.40;;;;;;;8.34;100.00;91899.50;2106894;28;20047;-83
2024/02/22 03:37:13;;;;;;;0.30;0.30;;;;;;;8.26;100.00;91892.91;2107016;28;20032;-83
2024/02/22 03:38:14;;;;;;;1.58;0.30;;;;;;;8.30;100.00;91893.53;2107033;28;20066;-82
2024/02/22 03:39:15;;;;;;;0.35;0.35;;;;;;;8.34;100.00;91894.16;2106913;28;20461;-82
2024/02/22 03:40:16;;;;;;;0.60;0.40;;;;;;;8.40;100.00;91892.47;2098740;28;20096;-83
2024/02/22 03:41:24;;;;;;;0.38;0.30;;;;;;;8.40;100.00;91891.72;2087000;28;20108;-82
2024/02/22 03:42:25;;;;;;;0.30;0.30;;;;;;;8.32;100.00;91896.50;2100533;28;20032;-84
2024/02/22 03:43:25;;;;;;;1.75;0.40;;;;;;;8.42;100.00;91892.03;2115165;28;20032;-83
2024/02/22 03:44:27;;;;;;;0.40;0.40;;;;;;;8.35;100.00;91892.25;2106896;28;20039;-84
2024/02/22 03:45:29;;;;;;;0.30;0.30;;;;;;;8.43;100.00;91880.97;2098942;28;20017;-83
2024/02/22 03:46:30;;;;;;;0.25;0.25;;;;;;;8.48;100.00;91891.06;2109063;28;20500;-84
2024/02/22 03:47:31;;;;;;;0.50;0.40;;;;;;;8.43;100.00;91880.97;2106891;28;20024;-82
2024/02/22 03:48:32;;;;;;;0.38;0.30;;;;;;;8.45;100.00;91888.50;2115215;28;20024;-82
2024/02/22 03:49:33;;;;;;;0.30;0.30;;;;;;;8.51;100.00;91881.44;2098466;28;20032;-83
2024/02/22 03:50:34;;;;;;;0.47;0.40;;;;;;;8.34;100.00;91878.19;2106849;28;20024;-84
2024/02/22 03:51:38;;;;;;;0.38;0.38;;;;;;;8.63;100.00;91872.66;2106720;28;20111;-84
2024/02/22 03:52:39;;;;;;;0.20;0.20;;;;;;;8.69;100.00;91880.81;2098968;28;20507;-83
2024/02/22 03:53:40;;;;;;;0.30;0.30;;;;;;;8.56;100.00;91871.00;2106803;28;20031;-84
2024/02/22 03:54:41;;;;;;;0.65;0.30;;;;;;;8.40;100.00;91871.16;2106831;28;20036;-83
2024/02/22 03:55:43;;;;;;;0.30;0.30;;;;;;;8.47;100.00;91881.59;2103506;28;20025;-83
2024/02/22 03:56:44;;;;;;;0.30;0.30;;;;;;;8.54;100.00;91876.00;2098644;28;20032;-82
2024/02/22 03:57:45;;;;;;;0.70;0.40;;;;;;;8.55;100.00;91869.47;2090231;28;20078;-83
2024/02/22 03:58:46;;;;;;;0.30;0.30;;;;;;;8.64;100.00;91876.06;2090201;28;20028;-83
2024/02/22 03:59:47;;;;;;;1.15;0.40;;;;;;;8.57;100.00;91861.81;2098327;28;20025;-82
2024/02/22 04:00:48;;;;;;;0.30;0.30;;;;;;;8.39;100.00;91863.63;2098666;28;20131;-82
2024/02/22 04:01:52;;;;;;;0.82;0.30;;;;;;;8.49;100.00;91857.16;2090122;28;20964;-83
2024/02/22 04:02:53;;;;;;;0.38;0.30;;;;;;;8.75;100.00;91863.88;2098826;28;20048;-84
2024/02/22 04:03:55;;;;;;;0.70;0.40;;;;;;;8.68;100.00;91850.03;2098583;28;20024;-81
2024/02/22 04:04:56;;;;;;;0.30;0.30;;;;;;;8.53;100.00;91858.53;2098564;28;20036;-83
2024/02/22 04:05:57;;;;;;;0.63;0.40;;;;;;;8.57;100.00;91856.50;2098451;28;20036;-82
2024/02/22 04:06:58;;;;;;;1.85;0.30;;;;;;;8.53;100.00;91861.19;2098508;28;20028;-82
2024/02/22 04:07:59;;;;;;;0.30;0.30;;;;;;;8.44;100.00;91863.78;2098333;28;20020;-83
2024/02/22 04:09:01;;;;;;;0.30;0.30;;;;;;;8.49;100.00;91862.50;2081876;28;20026;-84
2024/02/22 04:10:03;;;;;;;1.05;0.40;;;;;;;8.52;100.00;91857.06;2098817;28;20459;-81
2024/02/22 04:11:04;;;;;;;0.38;0.38;;;;;;;8.30;100.00;91856.28;2117371;27;20027;-84
2024/02/22 04:12:05;;;;;;;0.38;0.38;;;;;;;8.21;100.00;91846.28;2115035;28;20169;-82
2024/02/22 04:13:08;;;;;;;0.40;0.40;;;;;;;8.27;100.00;91849.88;2106785;28;20397;-84
2024/02/22 04:14:09;;;;;;;0.57;0.40;;;;;;;8.26;100.00;91845.72;2098580;28;20452;-82
2024/02/22 04:15:10;;;;;;;0.40;0.40;;;;;;;8.51;100.00;91844.16;2098431;28;20481;-82
2024/02/22 04:16:11;;;;;;;0.30;0.30;;;;;;;8.55;100.00;91850.09;2096480;28;20048;-82
2024/02/22 04:17:12;;;;;;;1.65;0.40;;;;;;;8.61;100.00;91852.97;2090035;28;20032;-82
2024/02/22 04:18:13;;;;;;;1.25;0.35;;;;;;;8.62;100.00;91862.44;2090568;28;20036;-84
2024/02/22 04:19:14;;;;;;;0.40;0.40;;;;;;;8.55;100.00;91850.09;2090035;28;20036;-85
2024/02/22 04:20:15;;;;;;;0.40;0.40;;;;;;;8.54;100.00;91852.03;2094992;28;20195;-82
2024/02/22 04:21:16;;;;;;;0.40;0.40;;;;;;;8.41;100.00;91843.34;2103763;28;20035;-83
2024/02/22 04:22:17;;;;;;;1.77;0.40;;;;;;;8.34;100.00;91851.56;2089993;28;20374;-83
2024/02/22 04:23:18;;;;;;;0.35;0.35;;;;;;;8.34;100.00;91851.56;2090034;28;20870;-83
2024/02/22 04:24:19;;;;;;;1.92;0.50;;;;;;;8.40;100.00;91838.47;2090247;28;20047;-82
2024/02/22 04:25:20;;;;;;;0.55;0.40;;;;;;;8.40;100.00;91843.78;2090020;28;20490;-83
2024/02/22 04:26:21;;;;;;;0.77;0.40;;;;;;;8.57;100.00;91837.13;2102788;28;20032;-83
2024/02/22 04:27:22;;;;;;;0.50;0.45;;;;;;;8.61;100.00;91837.00;2100420;28;20102;-83
2024/02/22 04:28:24;;;;;;;0.80;0.40;;;;;;;8.56;100.00;91832.97;2098103;28;20537;-84
2024/02/22 04:29:25;;;;;;;0.52;0.50;;;;;;;8.49;100.00;91836.59;2090111;28;20017;-83
2024/02/22 04:30:26;;;;;;;1.58;0.50;;;;;;;8.42;100.00;91834.19;2090043;28;20056;-83
2024/02/22 04:31:27;;;;;;;0.45;0.45;;;;;;;8.37;100.00;91831.34;2106518;28;20464;-82
2024/02/22 04:32:30;;;;;;;3.38;0.40;;;;;;;8.51;100.00;91839.56;2114268;28;20072;-85
2024/02/22 04:33:32;;;;;;;0.43;0.43;;;;;;;8.46;100.00;91837.47;2098916;28;20031;-82
2024/02/22 04:34:33;;;;;;;0.60;0.60;;;;;;;8.51;100.00;91844.91;2106745;28;20019;-82
2024/02/22 04:35:34;;;;;;;0.47;0.40;;;;;;;8.64;100.00;91838.78;2106555;28;20096;-85
2024/02/22 04:36:42;;;;;;;2.05;0.45;;;;;;;8.76;100.00;91840.63;2098189;28;20051;-83
2024/02/22 04:37:43;;;;;;;1.60;0.40;;;;;;;8.61;100.00;91847.66;2100967;28;20057;-82
2024/02/22 04:38:44;;;;;;;0.60;0.50;;;;;;;8.63;100.00;91837.28;2115019;28;20024;-82
2024/02/22 04:39:44;;;;;;;1.90;0.50;;;;;;;8.74;100.00;91843.75;2106428;28;20073;-84
2024/02/22 04:40:45;;;;;;;0.73;0.73;;;;;;;8.80;100.00;91844.66;2096226;28;20082;-83
2024/02/22 04:41:48;;;;;;;0.40;0.40;;;;;;;8.66;100.00;91837.16;2105531;28;20028;-83
2024/02/22 04:42:49;;;;;;;0.50;0.50;;;;;;;8.75;100.00;91839.88;2114814;27;20023;-83
2024/02/22 04:43:50;;;;;;;0.35;0.32;;;;;;;8.72;100.00;91840.75;2114652;28;20031;-83
2024/02/22 04:44:51;;;;;;;0.40;0.40;;;;;;;8.56;100.00;91836.38;2098311;28;20025;-83
2024/02/22 04:45:52;;;;;;;1.83;0.60;;;;;;;8.51;100.00;91844.16;2104050;28;20218;-84
2024/02/22 04:46:53;;;;;;;0.65;0.50;;;;;;;8.65;100.00;91825.03;2106607;28;20078;-83
2024/02/22 04:47:54;;;;;;;0.68;0.47;;;;;;;8.76;100.00;91819.31;2111685;28;20028;-82
2024/02/22 04:49:01;;;;;;;0.98;0.38;;;;;;;8.98;100.00;91840.59;2106429;28;20473;-81
2024/02/22 04:50:03;;;;;;;0.38;0.30;;;;;;;8.67;100.00;91832.59;2107395;28;20035;-82
2024/02/22 04:51:04;;;;;;;0.40;0.40;;;;;;;8.94;100.00;91832.00;2111466;27;20019;-84